Time;durP1;ratioP1;P1;durP2;ratioP2;P2;SDS_P1;SDS_P2;PMS_P1;PMS_P2;Temp;Humidity;BMP_temperature;BMP_pressure;BME280_temperature;BME280_humidity;BME280_pressure;Samples;Min_cycle;Max_cycle;Signal;HPM_P1;HPM_P2
2022/01/14 00:02:19;;;;;;;38.13;24.77;;;5.80;44.80;;;;;;6309392;28;20335;-57
2022/01/14 00:05:23;;;;;;;37.33;24.67;;;5.90;45.10;;;;;;6308386;28;20233;-57
2022/01/14 00:08:26;;;;;;;39.30;24.67;;;5.70;45.20;;;;;;6307858;28;20236;-56
2022/01/14 00:11:31;;;;;;;37.07;24.53;;;5.80;44.70;;;;;;6288936;28;20324;-57
2022/01/14 00:14:39;;;;;;;42.17;24.87;;;5.80;44.90;;;;;;6308549;28;20310;-57
2022/01/14 00:17:41;;;;;;;39.40;24.80;;;5.90;45.00;;;;;;6288360;28;20239;-57
2022/01/14 00:20:45;;;;;;;32.60;23.90;;;6.00;45.60;;;;;;6301269;28;20274;-57
2022/01/14 00:23:51;;;;;;;41.40;25.23;;;5.90;45.10;;;;;;6299370;28;20385;-57
2022/01/14 00:33:38;;;;;;;41.80;24.50;;;5.70;45.90;;;;;;6303389;28;20319;-57
2022/01/14 00:36:42;;;;;;;37.13;23.63;;;5.80;46.20;;;;;;6305506;28;20298;-57
2022/01/14 00:39:46;;;;;;;38.97;24.23;;;5.90;46.10;;;;;;6290279;28;20379;-56
2022/01/14 00:42:50;;;;;;;43.57;25.77;;;5.70;46.30;;;;;;6290292;28;20553;-57
2022/01/14 00:45:55;;;;;;;39.57;25.33;;;5.60;46.20;;;;;;6284107;28;20737;-56
2022/01/14 00:48:58;;;;;;;41.90;24.97;;;5.80;45.80;;;;;;6289346;28;20315;-56
2022/01/14 00:52:03;;;;;;;33.00;22.40;;;6.00;45.90;;;;;;6303164;28;20244;-57
2022/01/14 00:55:07;;;;;;;39.30;23.43;;;6.10;46.20;;;;;;6281847;28;20497;-55
2022/01/14 01:01:30;;;;;;;32.97;23.00;;;6.10;46.60;;;;;;6291336;28;20729;-57
2022/01/14 01:04:37;;;;;;;41.47;23.50;;;5.90;46.10;;;;;;6302966;28;20287;-57
2022/01/14 01:07:42;;;;;;;38.67;25.57;;;6.00;46.30;;;;;;6292557;28;20239;-57
2022/01/14 01:10:48;;;;;;;35.37;23.77;;;6.10;46.00;;;;;;6287242;28;20380;-57
2022/01/14 01:14:00;;;;;;;34.37;22.97;;;5.90;46.40;;;;;;6289810;28;20243;-56
2022/01/14 01:17:03;;;;;;;34.73;24.77;;;5.90;46.30;;;;;;6290376;28;20402;-57
2022/01/14 01:20:12;;;;;;;36.07;24.00;;;6.00;46.80;;;;;;6295211;28;20788;-57
2022/01/14 01:23:16;;;;;;;39.53;24.97;;;6.10;46.60;;;;;;6292147;28;20240;-57
2022/01/14 01:26:26;;;;;;;38.30;24.60;;;6.00;47.30;;;;;;6288193;28;20259;-57
2022/01/14 01:29:46;;;;;;;36.90;23.63;;;5.90;47.10;;;;;;6291111;28;20465;-55
2022/01/14 01:32:49;;;;;;;42.77;24.83;;;6.20;47.60;;;;;;6293453;28;20237;-57
2022/01/14 01:35:52;;;;;;;36.83;23.03;;;6.10;47.40;;;;;;6314458;28;20319;-57
2022/01/14 01:38:56;;;;;;;38.77;24.97;;;6.20;47.50;;;;;;6311890;28;20260;-56
2022/01/14 01:42:02;;;;;;;43.23;24.87;;;6.20;47.80;;;;;;6312521;28;20585;-58
2022/01/14 01:45:09;;;;;;;35.50;23.70;;;5.90;47.90;;;;;;6305863;28;20228;-59
2022/01/14 01:48:12;;;;;;;48.30;25.60;;;6.20;47.90;;;;;;6308436;28;20311;-56
2022/01/14 01:51:15;;;;;;;41.33;24.00;;;6.00;47.70;;;;;;6302099;28;20233;-57
2022/01/14 01:54:21;;;;;;;36.60;24.90;;;6.00;47.70;;;;;;6295069;28;20714;-58
2022/01/14 01:57:24;;;;;;;41.13;25.00;;;6.20;48.10;;;;;;6287650;28;20237;-57
2022/01/14 02:00:29;;;;;;;32.17;23.43;;;6.30;47.90;;;;;;6288166;28;20320;-57
2022/01/14 02:03:33;;;;;;;45.13;24.57;;;6.10;47.80;;;;;;6300997;28;20247;-58
2022/01/14 02:06:37;;;;;;;36.90;25.20;;;5.90;48.90;;;;;;6294862;28;20234;-58
2022/01/14 02:09:41;;;;;;;36.33;23.90;;;6.20;48.50;;;;;;6287005;28;20737;-58
2022/01/14 02:12:50;;;;;;;45.83;25.03;;;6.20;48.40;;;;;;6302204;28;20776;-58
2022/01/14 02:16:15;;;;;;;39.77;25.10;;;6.00;48.60;;;;;;6312388;28;20233;-58
2022/01/14 02:19:25;;;;;;;41.97;24.73;;;5.90;49.10;;;;;;6304355;28;20709;-57
2022/01/14 02:22:28;;;;;;;42.43;26.03;;;5.90;48.90;;;;;;6308308;28;20727;-57
2022/01/14 02:25:32;;;;;;;39.33;24.80;;;5.90;49.00;;;;;;6288629;28;20436;-58
2022/01/14 02:28:34;;;;;;;39.70;25.70;;;5.90;49.30;;;;;;6303563;28;20233;-56
2022/01/14 02:31:37;;;;;;;41.17;26.23;;;5.80;50.30;;;;;;6286774;28;20705;-57
2022/01/14 02:34:40;;;;;;;46.57;25.73;;;5.70;50.30;;;;;;6313231;28;20852;-57
2022/01/14 02:37:44;;;;;;;45.50;27.00;;;6.00;51.10;;;;;;6292283;28;20233;-58
2022/01/14 02:40:48;;;;;;;42.90;26.97;;;5.80;50.50;;;;;;6258847;28;20229;-56
2022/01/14 02:43:51;;;;;;;45.87;28.20;;;6.00;51.10;;;;;;6284697;28;20743;-57
2022/01/14 02:46:58;;;;;;;48.37;27.13;;;6.00;51.70;;;;;;6285970;28;20251;-57
2022/01/14 02:50:01;;;;;;;40.80;26.40;;;5.90;52.10;;;;;;6293916;28;20560;-58
2022/01/14 02:53:13;;;;;;;46.23;28.83;;;5.80;52.20;;;;;;6301720;28;20237;-58
2022/01/14 02:56:21;;;;;;;46.77;27.33;;;5.80;52.40;;;;;;6305924;28;21336;-57
2022/01/14 02:59:24;;;;;;;46.13;26.60;;;5.90;53.00;;;;;;6285933;28;20378;-56
2022/01/14 03:02:29;;;;;;;50.20;29.03;;;6.00;53.50;;;;;;6301744;28;20347;-58
2022/01/14 03:05:32;;;;;;;43.83;27.87;;;5.90;53.50;;;;;;6306267;28;20719;-57
2022/01/14 03:08:36;;;;;;;53.23;28.57;;;5.60;54.00;;;;;;6302834;28;20256;-57
2022/01/14 03:11:42;;;;;;;57.83;29.40;;;5.70;54.40;;;;;;6289078;28;20259;-58
2022/01/14 03:14:45;;;;;;;55.13;30.40;;;5.70;55.50;;;;;;6297858;28;20905;-58
2022/01/14 03:17:48;;;;;;;53.03;29.23;;;5.90;55.30;;;;;;6285484;28;20241;-59
2022/01/14 03:20:58;;;;;;;56.20;29.23;;;6.00;55.70;;;;;;6306881;28;20667;-57
2022/01/14 03:24:16;;;;;;;56.93;30.20;;;5.60;55.60;;;;;;6291944;28;20672;-58
2022/01/14 03:27:20;;;;;;;56.50;30.53;;;5.70;56.40;;;;;;6291435;28;20282;-58
2022/01/14 03:30:22;;;;;;;55.80;28.97;;;5.80;57.80;;;;;;6289939;28;20662;-58
2022/01/14 03:33:25;;;;;;;55.17;30.57;;;5.50;58.10;;;;;;6297195;28;20233;-58
2022/01/14 03:36:28;;;;;;;48.37;29.27;;;5.80;57.90;;;;;;6300829;28;20324;-57
2022/01/14 03:39:32;;;;;;;60.33;30.10;;;5.60;57.60;;;;;;6291612;28;20236;-56
2022/01/14 03:42:35;;;;;;;49.17;28.33;;;5.50;58.10;;;;;;6305804;28;20244;-58
2022/01/14 03:45:39;;;;;;;60.90;30.67;;;5.80;58.70;;;;;;6284189;28;20233;-57
2022/01/14 03:48:42;;;;;;;54.90;30.00;;;5.60;59.00;;;;;;6285202;28;20235;-57
2022/01/14 03:51:45;;;;;;;61.83;30.47;;;5.60;59.10;;;;;;6303357;28;20721;-57
2022/01/14 03:54:49;;;;;;;62.63;30.60;;;5.80;59.20;;;;;;6306270;28;20327;-57
2022/01/14 03:58:12;;;;;;;60.57;31.27;;;5.40;58.90;;;;;;6273383;28;20241;-59
2022/01/14 04:01:14;;;;;;;51.43;28.60;;;5.40;58.90;;;;;;6256840;28;1148593;-57
2022/01/14 04:04:17;;;;;;;51.63;28.13;;;5.70;59.20;;;;;;6310971;28;20320;-55
2022/01/14 04:07:20;;;;;;;49.60;28.27;;;5.60;59.10;;;;;;6296009;28;20362;-57
2022/01/14 04:10:26;;;;;;;55.83;28.80;;;5.70;59.20;;;;;;6289663;28;20337;-55
2022/01/14 04:13:39;;;;;;;50.83;28.10;;;5.70;59.00;;;;;;6291160;28;20323;-56
2022/01/14 04:16:41;;;;;;;49.37;27.77;;;5.70;59.30;;;;;;6298175;28;20319;-56
2022/01/14 04:19:44;;;;;;;46.87;28.03;;;5.50;59.30;;;;;;6296169;28;20241;-57
2022/01/14 04:22:48;;;;;;;47.90;26.27;;;5.50;60.10;;;;;;6296754;28;20426;-57
2022/01/14 04:25:54;;;;;;;49.37;28.00;;;5.40;59.50;;;;;;6298773;28;20241;-57
2022/01/14 04:28:57;;;;;;;48.67;27.13;;;5.60;59.80;;;;;;6299213;28;20327;-57
2022/01/14 04:32:00;;;;;;;44.17;26.03;;;5.60;59.90;;;;;;6283029;28;20347;-57
2022/01/14 04:35:04;;;;;;;45.97;27.20;;;5.50;59.70;;;;;;6296664;28;20229;-56
2022/01/14 04:38:07;;;;;;;47.93;27.17;;;5.50;59.90;;;;;;6298428;28;20642;-58
2022/01/14 04:41:12;;;;;;;47.10;26.17;;;5.60;59.90;;;;;;6296429;28;20328;-57
2022/01/14 04:44:15;;;;;;;46.67;27.43;;;5.70;60.10;;;;;;6295426;28;20260;-58
2022/01/14 04:47:29;;;;;;;48.33;26.00;;;5.50;59.80;;;;;;6296555;28;20328;-56
2022/01/14 04:50:33;;;;;;;47.43;26.30;;;5.40;59.60;;;;;;6299709;28;20240;-58
2022/01/14 04:53:35;;;;;;;42.50;26.67;;;5.70;59.80;;;;;;6298428;28;20307;-59
2022/01/14 04:56:39;;;;;;;44.73;26.33;;;5.60;59.70;;;;;;6306452;28;20228;-56
2022/01/14 04:59:44;;;;;;;46.00;26.23;;;5.60;59.70;;;;;;6301976;28;20630;-55
2022/01/14 05:02:47;;;;;;;47.17;26.53;;;5.80;59.60;;;;;;6305068;28;20348;-55
2022/01/14 05:05:56;;;;;;;46.47;27.13;;;5.90;59.70;;;;;;6301187;28;20240;-56
2022/01/14 05:08:59;;;;;;;42.10;26.43;;;5.90;60.00;;;;;;6296571;28;20240;-57
2022/01/14 05:12:08;;;;;;;41.03;25.43;;;5.60;59.80;;;;;;6302458;28;20664;-56
2022/01/14 05:15:13;;;;;;;43.40;27.07;;;5.50;59.90;;;;;;6303650;28;20300;-57
2022/01/14 05:18:16;;;;;;;39.53;25.83;;;5.50;59.90;;;;;;6307141;28;20617;-57
2022/01/14 05:21:19;;;;;;;43.00;26.33;;;5.60;60.00;;;;;;6309607;28;20923;-56
2022/01/14 05:24:24;;;;;;;40.73;26.17;;;5.80;60.20;;;;;;6299194;28;20312;-57
2022/01/14 05:27:28;;;;;;;39.33;25.60;;;5.50;60.50;;;;;;6307982;28;20271;-55
2022/01/14 05:30:31;;;;;;;42.03;25.50;;;5.60;60.00;;;;;;6306711;28;20239;-56
2022/01/14 05:33:33;;;;;;;45.57;25.50;;;5.70;60.10;;;;;;6302686;28;20502;-56
2022/01/14 05:36:36;;;;;;;43.67;27.10;;;5.60;59.60;;;;;;6302807;28;20220;-56
2022/01/14 05:39:40;;;;;;;41.63;26.60;;;5.60;59.80;;;;;;6295183;28;20366;-54
2022/01/14 05:42:45;;;;;;;47.73;27.70;;;5.70;59.80;;;;;;6293468;28;20243;-56
2022/01/14 05:45:47;;;;;;;50.93;27.47;;;5.50;59.90;;;;;;6305249;28;20299;-56
2022/01/14 05:48:50;;;;;;;39.27;25.23;;;5.60;60.00;;;;;;6297430;28;20264;-56
2022/01/14 05:51:53;;;;;;;48.83;27.57;;;5.50;59.50;;;;;;6300992;28;20233;-56
2022/01/14 05:54:56;;;;;;;48.47;26.80;;;5.60;59.90;;;;;;6297366;28;20239;-57
2022/01/14 05:58:00;;;;;;;45.43;28.00;;;5.80;60.00;;;;;;6293925;28;20701;-57
2022/01/14 06:01:03;;;;;;;43.50;26.77;;;5.50;59.60;;;;;;6296690;28;20321;-56
2022/01/14 06:04:07;;;;;;;57.33;28.67;;;5.50;59.30;;;;;;6298077;28;20318;-55
2022/01/14 06:07:10;;;;;;;51.93;29.03;;;5.50;59.40;;;;;;6295224;28;20824;-56
2022/01/14 06:10:13;;;;;;;48.47;29.03;;;5.50;59.20;;;;;;6298463;28;20233;-57
2022/01/14 06:13:17;;;;;;;61.47;31.47;;;5.80;59.80;;;;;;6296325;28;20316;-57
2022/01/14 06:16:20;;;;;;;56.67;31.47;;;5.50;59.60;;;;;;6296318;28;20217;-55
2022/01/14 06:19:23;;;;;;;57.13;31.40;;;5.50;59.50;;;;;;6299644;28;20234;-55
2022/01/14 06:22:26;;;;;;;64.63;33.53;;;5.50;59.00;;;;;;6299471;28;20507;-56
2022/01/14 06:25:29;;;;;;;65.80;33.57;;;5.30;58.90;;;;;;6292728;28;20918;-57
2022/01/14 06:28:33;;;;;;;61.23;32.47;;;5.30;59.40;;;;;;6297307;28;20335;-55
2022/01/14 06:31:36;;;;;;;81.60;33.77;;;5.50;60.00;;;;;;6306006;28;20229;-57
2022/01/14 06:34:38;;;;;;;79.93;35.53;;;5.60;59.00;;;;;;6292234;28;20553;-55
2022/01/14 06:37:42;;;;;;;75.17;35.77;;;4.70;58.70;;;;;;6296009;28;20225;-55
2022/01/14 06:40:46;;;;;;;72.87;34.10;;;5.30;59.20;;;;;;6298363;28;20233;-56
2022/01/14 06:43:50;;;;;;;69.80;36.00;;;5.40;58.80;;;;;;6295911;28;20241;-56
2022/01/14 06:46:53;;;;;;;78.60;35.23;;;5.30;59.00;;;;;;6306686;28;20286;-56
2022/01/14 06:49:56;;;;;;;65.93;32.13;;;5.20;58.70;;;;;;6295508;28;20357;-56
2022/01/14 06:52:59;;;;;;;71.50;35.50;;;5.20;58.60;;;;;;6301180;28;20324;-56
2022/01/14 06:56:02;;;;;;;68.03;34.23;;;5.50;58.90;;;;;;6298975;28;20793;-56
2022/01/14 06:59:06;;;;;;;69.83;32.20;;;5.50;58.10;;;;;;6302747;28;20509;-58
2022/01/14 07:02:09;;;;;;;60.10;32.30;;;5.40;58.10;;;;;;6302452;28;20354;-57
2022/01/14 07:05:13;;;;;;;65.57;32.30;;;5.50;57.50;;;;;;6300141;28;20309;-57
2022/01/14 07:08:15;;;;;;;52.23;29.83;;;5.30;56.90;;;;;;6300495;28;20426;-57
2022/01/14 07:11:19;;;;;;;62.37;30.60;;;5.50;57.20;;;;;;6292341;28;20583;-56
2022/01/14 07:14:23;;;;;;;57.57;29.67;;;5.30;56.60;;;;;;6293064;28;20310;-57
2022/01/14 07:17:27;;;;;;;56.30;30.17;;;5.50;56.00;;;;;;6292002;28;20768;-55
2022/01/14 07:20:30;;;;;;;49.47;28.30;;;5.60;56.10;;;;;;6294223;28;20391;-55
2022/01/14 07:23:32;;;;;;;48.50;29.27;;;5.60;55.60;;;;;;6296920;28;20736;-57
2022/01/14 07:26:35;;;;;;;56.03;28.20;;;5.50;55.40;;;;;;6301490;28;20697;-57
2022/01/14 07:29:39;;;;;;;52.30;27.67;;;5.50;55.00;;;;;;6298898;28;20301;-58
2022/01/14 07:32:42;;;;;;;51.47;27.63;;;5.60;55.50;;;;;;6298347;28;20739;-52
2022/01/14 07:35:45;;;;;;;49.90;27.47;;;5.60;55.30;;;;;;6295933;28;20225;-55
2022/01/14 07:38:48;;;;;;;44.17;26.10;;;5.70;55.20;;;;;;6293809;28;20243;-57
2022/01/14 07:41:51;;;;;;;48.77;27.53;;;5.50;55.00;;;;;;6292518;28;20233;-56
2022/01/14 07:44:55;;;;;;;50.93;26.73;;;5.50;55.40;;;;;;6298711;28;20262;-57
2022/01/14 07:47:58;;;;;;;50.53;28.10;;;5.50;55.50;;;;;;6293104;28;20320;-56
2022/01/14 07:51:04;;;;;;;46.23;26.60;;;5.60;55.50;;;;;;6302457;28;20236;-57
2022/01/14 07:54:07;;;;;;;47.13;27.40;;;5.60;56.20;;;;;;6291399;28;20291;-55
2022/01/14 07:57:10;;;;;;;40.60;25.50;;;5.50;55.00;;;;;;6293559;28;20434;-57
2022/01/14 08:00:15;;;;;;;39.70;25.63;;;5.60;55.30;;;;;;6292708;28;21458;-58
2022/01/14 08:03:17;;;;;;;50.10;26.43;;;5.70;55.40;;;;;;6293830;28;20238;-57
2022/01/14 08:06:22;;;;;;;43.97;24.63;;;5.50;55.10;;;;;;6297042;28;20236;-58
2022/01/14 08:09:25;;;;;;;45.63;23.83;;;5.60;55.40;;;;;;6288453;28;20233;-58
2022/01/14 08:12:28;;;;;;;49.17;25.07;;;5.70;55.40;;;;;;6293684;28;20286;-56
2022/01/14 08:15:32;;;;;;;42.37;25.13;;;5.70;55.40;;;;;;6295230;28;20402;-57
2022/01/14 08:18:36;;;;;;;46.27;25.53;;;5.80;55.10;;;;;;6292909;28;20923;-57
2022/01/14 08:21:39;;;;;;;39.70;24.27;;;5.50;55.00;;;;;;6293444;28;20233;-58
2022/01/14 08:24:42;;;;;;;41.33;24.57;;;5.80;56.10;;;;;;6291793;28;20256;-60
2022/01/14 08:27:44;;;;;;;42.60;24.17;;;5.80;55.90;;;;;;6305449;28;20338;-58
2022/01/14 08:30:48;;;;;;;41.67;24.30;;;5.50;55.60;;;;;;6291161;28;21213;-57
2022/01/14 08:33:51;;;;;;;50.63;25.50;;;5.50;56.30;;;;;;6298884;28;20232;-57
2022/01/14 08:36:54;;;;;;;47.00;23.60;;;5.60;56.50;;;;;;6304511;28;20278;-57
2022/01/14 08:39:57;;;;;;;49.03;24.83;;;5.80;57.10;;;;;;6299865;28;20256;-56
2022/01/14 08:43:00;;;;;;;39.53;24.37;;;5.70;57.30;;;;;;6297299;28;20540;-57
2022/01/14 08:46:04;;;;;;;45.20;24.97;;;5.70;57.20;;;;;;6302553;28;20233;-57
2022/01/14 08:49:08;;;;;;;45.83;25.17;;;5.60;57.30;;;;;;6300736;28;20866;-57
2022/01/14 08:52:13;;;;;;;42.20;24.13;;;5.60;57.60;;;;;;6293328;28;20399;-58
2022/01/14 08:55:17;;;;;;;46.57;24.77;;;5.50;58.00;;;;;;6298337;28;20458;-57
2022/01/14 08:58:20;;;;;;;45.27;25.20;;;5.60;58.40;;;;;;6297493;28;20397;-58
2022/01/14 09:01:24;;;;;;;45.47;23.93;;;5.50;58.80;;;;;;6300166;28;20621;-56
2022/01/14 09:04:27;;;;;;;51.37;25.43;;;5.70;58.10;;;;;;6298737;28;20646;-56
2022/01/14 09:07:29;;;;;;;47.47;25.87;;;5.60;58.10;;;;;;6303015;28;20628;-58
2022/01/14 09:10:32;;;;;;;47.07;24.73;;;5.70;58.20;;;;;;6305729;28;20657;-59
2022/01/14 09:13:36;;;;;;;41.33;23.93;;;5.60;58.10;;;;;;6300451;28;20224;-57
2022/01/14 09:16:40;;;;;;;51.17;25.97;;;5.80;58.20;;;;;;6296839;28;20225;-57
2022/01/14 09:19:43;;;;;;;40.40;24.03;;;5.70;58.00;;;;;;6301968;28;20228;-58
2022/01/14 09:22:49;;;;;;;48.30;24.23;;;5.60;57.90;;;;;;6304776;28;20669;-59
2022/01/14 09:25:52;;;;;;;39.10;22.60;;;5.70;57.30;;;;;;6303630;28;20358;-56
2022/01/14 09:28:55;;;;;;;41.77;24.60;;;5.90;57.40;;;;;;6302546;28;20323;-59
2022/01/14 09:31:59;;;;;;;47.50;25.40;;;5.70;57.10;;;;;;6297138;28;20319;-57
2022/01/14 09:35:03;;;;;;;45.13;25.47;;;5.50;56.80;;;;;;6299678;28;20242;-57
2022/01/14 09:38:06;;;;;;;45.30;22.57;;;5.70;56.80;;;;;;6304203;28;20240;-57
2022/01/14 09:41:09;;;;;;;42.83;23.00;;;5.70;56.60;;;;;;6293013;28;20236;-57
2022/01/14 09:44:15;;;;;;;40.73;23.20;;;6.00;56.30;;;;;;6288859;28;20706;-58
2022/01/14 09:47:21;;;;;;;37.23;22.03;;;6.00;55.90;;;;;;6306069;28;20362;-58
2022/01/14 09:50:24;;;;;;;42.83;22.27;;;5.60;55.40;;;;;;6303523;28;20241;-56
2022/01/14 09:53:29;;;;;;;37.13;21.50;;;6.10;55.90;;;;;;6304620;28;20910;-56
2022/01/14 09:56:31;;;;;;;37.10;21.37;;;5.90;55.30;;;;;;6309885;28;20298;-58
2022/01/14 09:59:39;;;;;;;34.10;21.20;;;5.90;54.80;;;;;;6305748;28;20228;-59
2022/01/14 10:02:44;;;;;;;34.67;20.07;;;6.20;55.00;;;;;;6290556;28;20240;-57
2022/01/14 10:05:51;;;;;;;37.47;21.47;;;6.00;54.30;;;;;;6303728;28;20241;-57
2022/01/14 10:09:04;;;;;;;36.00;19.57;;;6.10;54.40;;;;;;6299837;28;20817;-57
2022/01/14 10:12:11;;;;;;;33.17;19.37;;;5.90;54.40;;;;;;6304607;28;20763;-56
2022/01/14 10:15:13;;;;;;;32.00;18.70;;;5.90;53.90;;;;;;6294976;28;20252;-58
2022/01/14 10:18:20;;;;;;;31.60;18.40;;;5.60;53.50;;;;;;6295712;28;20318;-57
2022/01/14 10:21:32;;;;;;;38.30;19.90;;;6.10;54.40;;;;;;6305986;28;20323;-56
2022/01/14 10:24:35;;;;;;;27.87;17.57;;;6.30;53.90;;;;;;6311133;28;20276;-57
2022/01/14 10:27:40;;;;;;;25.70;17.20;;;6.20;53.90;;;;;;6290969;28;20264;-56
2022/01/14 10:30:46;;;;;;;38.13;17.03;;;6.00;53.60;;;;;;6299846;28;20228;-56
2022/01/14 10:33:50;;;;;;;32.33;17.87;;;6.30;53.00;;;;;;6297768;28;20237;-55
2022/01/14 10:37:12;;;;;;;27.63;17.70;;;6.50;52.70;;;;;;6298273;28;20622;-57
2022/01/14 10:40:17;;;;;;;26.13;16.83;;;6.20;52.90;;;;;;6295460;28;20309;-57
2022/01/14 10:43:22;;;;;;;28.37;16.47;;;6.20;52.20;;;;;;6299768;28;20403;-57
2022/01/14 10:46:29;;;;;;;20.83;14.83;;;6.10;52.50;;;;;;6291592;28;20264;-57
2022/01/14 10:49:34;;;;;;;24.30;15.87;;;6.20;51.80;;;;;;6293484;28;20225;-56
2022/01/14 10:52:36;;;;;;;20.17;15.33;;;6.50;51.70;;;;;;6306815;28;20328;-57
2022/01/14 10:55:42;;;;;;;26.27;15.13;;;6.30;51.20;;;;;;6298547;28;20657;-57
2022/01/14 10:58:46;;;;;;;20.57;14.77;;;6.40;50.60;;;;;;6304297;28;20506;-58
2022/01/14 11:01:50;;;;;;;20.50;15.07;;;6.40;50.60;;;;;;6301185;28;20274;-56
2022/01/14 11:05:06;;;;;;;18.37;14.53;;;6.40;50.30;;;;;;6305109;28;20362;-56
2022/01/14 11:08:09;;;;;;;19.53;13.47;;;6.60;50.80;;;;;;6306296;28;20325;-56
2022/01/14 11:11:14;;;;;;;23.43;14.53;;;6.50;50.90;;;;;;6292814;28;20705;-57
2022/01/14 11:14:18;;;;;;;17.37;13.17;;;6.50;49.60;;;;;;6298626;28;20236;-57
2022/01/14 11:17:21;;;;;;;23.60;13.73;;;6.70;48.60;;;;;;6306071;28;20233;-58
2022/01/14 11:24:06;;;;;;;25.70;14.20;;;6.80;48.70;;;;;;6298687;28;20232;-56
2022/01/14 11:27:13;;;;;;;23.77;13.97;;;6.70;49.10;;;;;;6293148;28;20271;-58
2022/01/14 11:30:16;;;;;;;21.77;13.03;;;6.70;49.10;;;;;;6295863;28;20740;-57
2022/01/14 11:33:19;;;;;;;19.00;13.23;;;6.80;49.30;;;;;;6298435;28;20777;-58
2022/01/14 11:36:23;;;;;;;18.73;12.80;;;6.80;49.50;;;;;;6298093;28;20631;-57
2022/01/14 11:39:28;;;;;;;18.03;12.43;;;6.70;50.00;;;;;;6300737;28;20648;-58
2022/01/14 11:42:41;;;;;;;17.53;12.67;;;6.80;49.50;;;;;;6304138;28;20332;-57
2022/01/14 11:45:53;;;;;;;18.27;12.57;;;6.70;49.00;;;;;;6300863;28;20233;-56
2022/01/14 11:48:56;;;;;;;17.43;12.73;;;6.90;49.30;;;;;;6297115;28;20378;-56
2022/01/14 11:52:01;;;;;;;20.83;12.20;;;6.90;48.90;;;;;;6297534;28;20234;-57
2022/01/14 11:55:05;;;;;;;17.53;11.83;;;6.90;48.70;;;;;;6297613;28;21009;-57
2022/01/14 11:58:11;;;;;;;17.70;12.40;;;6.90;49.20;;;;;;6300947;28;20237;-58
2022/01/14 12:01:34;;;;;;;21.90;11.77;;;7.00;48.90;;;;;;6299335;28;20233;-59
2022/01/14 12:05:03;;;;;;;17.07;11.47;;;7.00;49.50;;;;;;6295514;28;20247;-58
2022/01/14 12:08:18;;;;;;;22.50;11.80;;;7.00;50.20;;;;;;6304664;28;20324;-57
2022/01/14 12:11:24;;;;;;;14.73;11.20;;;7.00;51.10;;;;;;6298089;28;20237;-57
2022/01/14 12:14:37;;;;;;;15.70;10.83;;;6.90;51.10;;;;;;6263244;28;20228;-58
2022/01/14 12:17:42;;;;;;;17.37;11.50;;;7.00;52.10;;;;;;6295347;28;20737;-58
2022/01/14 12:20:49;;;;;;;17.90;11.77;;;7.10;53.30;;;;;;6294654;28;20233;-57
2022/01/14 12:23:54;;;;;;;17.40;11.63;;;7.10;53.20;;;;;;6297665;28;20257;-57
2022/01/14 12:27:26;;;;;;;17.23;11.30;;;7.00;53.50;;;;;;6297982;28;20908;-58
2022/01/14 12:30:29;;;;;;;17.13;10.63;;;7.10;54.30;;;;;;6290416;28;20241;-58
2022/01/14 12:33:40;;;;;;;15.73;10.97;;;7.00;54.00;;;;;;6298433;28;20332;-57
2022/01/14 12:36:42;;;;;;;15.63;10.47;;;7.20;53.60;;;;;;6297461;28;20690;-57
2022/01/14 12:39:49;;;;;;;18.87;10.73;;;7.00;53.10;;;;;;6299940;28;20460;-56
2022/01/14 12:42:55;;;;;;;15.03;11.47;;;7.00;53.50;;;;;;6300742;28;20239;-56
2022/01/14 12:46:11;;;;;;;13.40;10.70;;;7.20;53.40;;;;;;6300803;28;20229;-56
2022/01/14 12:49:21;;;;;;;17.43;11.00;;;7.10;53.40;;;;;;6296577;28;20273;-56
2022/01/14 12:52:30;;;;;;;12.23;10.33;;;7.00;53.70;;;;;;6273263;28;20714;-56
2022/01/14 12:55:36;;;;;;;19.17;11.83;;;7.00;54.50;;;;;;6293133;28;20316;-58
2022/01/14 12:58:53;;;;;;;14.43;10.93;;;6.90;55.60;;;;;;6299014;28;20720;-56
2022/01/14 13:01:56;;;;;;;15.83;11.93;;;7.00;55.70;;;;;;6297943;28;20264;-57
2022/01/14 13:05:00;;;;;;;17.53;11.70;;;7.00;55.80;;;;;;6302210;28;20342;-58
2022/01/14 13:08:03;;;;;;;14.93;11.97;;;7.00;55.80;;;;;;6291649;28;20297;-58
2022/01/14 13:11:10;;;;;;;20.40;11.93;;;7.00;56.40;;;;;;6297256;28;20360;-57
2022/01/14 13:14:17;;;;;;;17.70;12.33;;;6.90;56.50;;;;;;6297774;28;20323;-56
2022/01/14 13:17:24;;;;;;;22.10;12.63;;;7.00;56.70;;;;;;6300136;28;20255;-56
2022/01/14 13:20:29;;;;;;;19.67;13.30;;;7.00;57.70;;;;;;6304525;28;20413;-57
2022/01/14 13:23:33;;;;;;;17.73;13.30;;;6.70;57.40;;;;;;6304350;28;20853;-60
2022/01/14 13:26:37;;;;;;;20.10;13.57;;;7.00;57.90;;;;;;6313049;28;20708;-58
2022/01/14 13:29:43;;;;;;;16.10;11.67;;;6.90;58.00;;;;;;6305828;28;20542;-58
2022/01/14 13:32:46;;;;;;;17.77;13.93;;;6.90;58.70;;;;;;6304214;28;20295;-58
2022/01/14 13:35:49;;;;;;;19.00;14.13;;;6.90;59.20;;;;;;6299855;28;20260;-58
2022/01/14 13:39:08;;;;;;;19.93;13.50;;;6.90;59.80;;;;;;6300979;28;20237;-57
2022/01/14 13:42:25;;;;;;;18.73;13.20;;;6.90;59.90;;;;;;6306978;28;20320;-58
2022/01/14 13:45:28;;;;;;;16.87;12.40;;;6.90;60.10;;;;;;6297539;28;20706;-58
2022/01/14 13:48:39;;;;;;;22.27;13.70;;;6.90;60.00;;;;;;6301297;28;20240;-57
2022/01/14 13:51:42;;;;;;;18.20;13.77;;;6.90;60.00;;;;;;6299124;28;20229;-57
2022/01/14 13:54:55;;;;;;;18.17;12.63;;;6.90;60.10;;;;;;6302476;28;20237;-58
2022/01/14 13:58:07;;;;;;;21.23;13.70;;;6.90;60.10;;;;;;6297463;28;20260;-58
2022/01/14 14:01:11;;;;;;;16.80;12.93;;;7.00;60.20;;;;;;6305726;28;20233;-58
2022/01/14 14:04:25;;;;;;;15.63;12.97;;;7.00;60.10;;;;;;6297217;28;20232;-53
2022/01/14 14:07:28;;;;;;;18.67;13.73;;;6.90;60.10;;;;;;6303231;28;20645;-57
2022/01/14 14:11:02;;;;;;;14.80;12.20;;;7.00;60.10;;;;;;6294358;28;20245;-57
2022/01/14 14:17:26;;;;;;;17.37;12.90;;;6.90;60.10;;;;;;6294458;28;20236;-56
2022/01/14 14:20:29;;;;;;;14.00;12.33;;;6.90;60.60;;;;;;6295819;28;20311;-57
2022/01/14 14:23:34;;;;;;;12.30;11.03;;;6.90;60.20;;;;;;6303440;28;20280;-56
2022/01/14 14:26:37;;;;;;;13.47;11.93;;;6.90;60.60;;;;;;6301287;28;20773;-57
2022/01/14 14:29:47;;;;;;;12.40;11.10;;;7.10;60.80;;;;;;6303886;28;20311;-56
2022/01/14 14:32:50;;;;;;;14.50;11.33;;;7.00;60.80;;;;;;6289965;28;20233;-58
2022/01/14 14:35:56;;;;;;;12.83;11.40;;;7.00;60.40;;;;;;6305239;28;20229;-57
2022/01/14 14:38:59;;;;;;;12.37;10.70;;;7.00;60.30;;;;;;6302189;28;20273;-58
2022/01/14 14:42:02;;;;;;;12.13;11.03;;;7.00;60.70;;;;;;6301382;28;20733;-57
2022/01/14 14:45:08;;;;;;;13.20;10.93;;;7.00;60.80;;;;;;6292407;28;20261;-58
2022/01/14 14:48:12;;;;;;;11.80;10.67;;;7.00;61.10;;;;;;6291410;28;20315;-56
2022/01/14 14:51:15;;;;;;;11.90;10.70;;;7.00;61.40;;;;;;6293277;28;20237;-56
2022/01/14 14:54:17;;;;;;;11.57;10.40;;;7.00;61.10;;;;;;6300039;28;20290;-57
2022/01/14 14:57:20;;;;;;;13.07;11.40;;;7.00;60.90;;;;;;6303823;28;20240;-57
2022/01/14 15:00:25;;;;;;;11.83;10.30;;;7.00;60.90;;;;;;6300881;28;20334;-54
2022/01/14 15:03:28;;;;;;;12.37;10.97;;;7.00;60.80;;;;;;6295868;28;20345;-57
2022/01/14 15:06:33;;;;;;;12.80;11.57;;;6.80;61.00;;;;;;6299072;28;20313;-57
2022/01/14 15:09:36;;;;;;;13.20;11.13;;;7.00;61.30;;;;;;6283387;28;20264;-58
2022/01/14 15:12:41;;;;;;;12.93;11.13;;;6.90;61.30;;;;;;6303038;28;20732;-56
2022/01/14 15:16:22;;;;;;;13.53;11.77;;;7.00;61.50;;;;;;6301252;28;20252;-56
2022/01/14 15:19:24;;;;;;;14.20;10.70;;;7.00;61.50;;;;;;6293271;28;20236;-57
2022/01/14 15:22:26;;;;;;;12.87;10.07;;;7.20;61.40;;;;;;6298687;28;20237;-57
2022/01/14 15:25:29;;;;;;;11.37;10.17;;;7.00;61.30;;;;;;6306582;28;21261;-56
2022/01/14 15:28:32;;;;;;;11.67;10.73;;;7.00;61.40;;;;;;6294449;28;20829;-56
2022/01/14 15:31:37;;;;;;;13.87;10.67;;;7.00;61.10;;;;;;6312171;28;20255;-56
2022/01/14 15:34:39;;;;;;;10.90;10.00;;;7.10;60.40;;;;;;6300081;28;20266;-56
2022/01/14 15:37:42;;;;;;;10.80;9.70;;;7.00;60.20;;;;;;6302158;28;20311;-56
2022/01/14 15:40:45;;;;;;;15.73;10.90;;;7.10;60.30;;;;;;6294182;28;20334;-57
2022/01/14 15:43:48;;;;;;;12.97;9.70;;;7.10;60.20;;;;;;6301081;28;20323;-56
2022/01/14 15:46:52;;;;;;;12.80;9.77;;;7.10;60.20;;;;;;6290613;28;20233;-56
2022/01/14 15:50:15;;;;;;;10.50;9.43;;;7.10;60.20;;;;;;6305892;28;20690;-57
2022/01/14 15:53:18;;;;;;;10.87;9.80;;;7.10;60.20;;;;;;6292651;28;20240;-56
2022/01/14 15:56:21;;;;;;;12.90;9.67;;;7.10;60.20;;;;;;6300808;28;20831;-56
2022/01/14 15:59:23;;;;;;;13.53;10.37;;;7.10;60.30;;;;;;6299808;28;20738;-56
2022/01/14 16:02:27;;;;;;;10.83;9.83;;;7.10;60.30;;;;;;6303147;28;20733;-57
2022/01/14 16:05:30;;;;;;;12.87;9.73;;;7.10;60.30;;;;;;6299989;28;20245;-56
2022/01/14 16:08:35;;;;;;;9.73;8.87;;;7.40;60.50;;;;;;6298939;28;20229;-57
2022/01/14 16:11:38;;;;;;;10.20;9.40;;;7.10;60.20;;;;;;6289917;28;20233;-57